Sremska Mitrovica, Serbia
Current Conditions -  °F | °C
As of 7:00 PM on Thursday 27 Nov 2014 (Local Time) from LYBT Reporting Station
Broken Clouds Broken Clouds  
Wind Chill: 28°   Ceiling: 4000
Heat Index: 36°   Visibility: 6mi
Dew Point: 28°   Wind: 10mph
Humidity: 75%   Direction: 100°E
Pressure: 30.09"   Gusts: NA
Location:  44.98°N, 19.61°E
Report Text: LYBT 271700Z 10009KT 080V150 9999 BKN040 02/M02 Q1019 NOSIG
Loading
Personal Weather Stations






























Interactive Weather Map New forecast layout! Learn more

10-Day Weather Forecast

Advertisements
Track Severe Weather on mobile